Time;durP1;ratioP1;P1;durP2;ratioP2;P2;SDS_P1;SDS_P2;PMS_P1;PMS_P2;Temp;Humidity;BMP_temperature;BMP_pressure;BME280_temperature;BME280_humidity;BME280_pressure;Samples;Min_cycle;Max_cycle;Signal;HPM_P1;HPM_P2
2022/01/09 00:00:21;;;;;;;50.13;9.55;;;;;;;5.58;100.00;98757.72;5112145;28;20046;-50
2022/01/09 00:02:46;;;;;;;43.92;7.50;;;;;;;6.04;100.00;98835.69;5112484;28;20023;-51
2022/01/09 00:05:12;;;;;;;49.28;7.75;;;;;;;6.06;100.00;98835.63;5112271;28;20034;-51
2022/01/09 00:07:38;;;;;;;34.75;6.93;;;;;;;5.57;100.00;98767.31;5094495;28;20429;-51
2022/01/09 00:10:04;;;;;;;38.33;6.78;;;;;;;5.80;100.00;98800.22;5094070;28;20055;-53
2022/01/09 00:12:30;;;;;;;33.08;6.38;;;;;;;5.72;100.00;98793.66;5094032;28;20039;-53
2022/01/09 00:14:55;;;;;;;35.75;6.90;;;;;;;6.07;100.00;98861.66;5114448;28;20042;-55
2022/01/09 00:17:20;;;;;;;43.05;6.93;;;;;;;5.98;100.00;98842.97;5116286;28;20118;-53
2022/01/09 00:19:46;;;;;;;36.72;6.28;;;;;;;6.12;100.00;98877.13;5116087;28;20039;-49
2022/01/09 00:22:12;;;;;;;40.10;7.15;;;;;;;6.11;100.00;98889.34;5116035;28;20039;-53
2022/01/09 00:24:37;;;;;;;37.95;7.07;;;;;;;5.62;100.00;98803.66;5115941;28;20034;-55
2022/01/09 00:27:03;;;;;;;44.92;7.07;;;;;;;6.11;100.00;98894.56;5097666;28;20036;-51
2022/01/09 00:29:28;;;;;;;30.73;6.13;;;;;;;5.99;100.00;98891.66;5115619;28;20032;-50
2022/01/09 00:31:54;;;;;;;35.13;6.57;;;;;;;6.13;100.00;98913.63;5115911;28;20114;-52
2022/01/09 00:34:19;;;;;;;41.65;7.10;;;;;;;5.81;100.00;98848.06;5115447;28;20100;-53
2022/01/09 00:36:44;;;;;;;39.10;7.45;;;;;;;6.17;100.00;98916.97;5080325;28;20016;-51
2022/01/09 00:39:10;;;;;;;45.10;6.93;;;;;;;6.20;100.00;98922.91;5115497;28;20483;-52
2022/01/09 00:41:35;;;;;;;35.33;7.65;;;;;;;5.66;100.00;98839.97;5115329;28;20046;-53
2022/01/09 00:44:00;;;;;;;29.27;6.13;;;;;;;5.86;100.00;98869.63;5115415;28;20031;-52
2022/01/09 00:46:26;;;;;;;29.92;5.80;;;;;;;6.20;100.00;98937.72;5115541;28;20027;-53
2022/01/09 00:48:51;;;;;;;38.20;6.45;;;;;;;6.22;100.00;98955.03;5097129;28;20387;-49
2022/01/09 00:51:16;;;;;;;36.40;6.72;;;;;;;5.77;100.00;98880.44;5115451;28;20123;-54
2022/01/09 00:53:42;;;;;;;34.10;6.97;;;;;;;6.25;100.00;98954.03;5096928;28;20039;-52
2022/01/09 00:56:07;;;;;;;34.75;6.28;;;;;;;6.22;100.00;98948.94;5096993;28;20468;-49
2022/01/09 00:58:32;;;;;;;32.38;7.60;;;;;;;5.85;100.00;98896.59;5115059;28;20036;-48
2022/01/09 01:00:59;;;;;;;41.65;6.60;;;;;;;6.22;100.00;98975.06;5115606;28;20043;-51
2022/01/09 01:03:25;;;;;;;34.55;7.07;;;;;;;5.74;100.00;98883.19;5115274;28;20126;-49
2022/01/09 01:05:50;;;;;;;33.97;6.68;;;;;;;5.88;100.00;98930.47;5115173;28;20051;-52
2022/01/09 01:08:16;;;;;;;36.65;7.55;;;;;;;6.19;100.00;98988.25;5096906;28;20046;-50
2022/01/09 01:10:41;;;;;;;34.22;6.75;;;;;;;6.16;100.00;98978.81;5079846;28;20042;-53
2022/01/09 01:13:06;;;;;;;39.00;7.35;;;;;;;5.75;100.00;98922.25;5114565;28;20035;-49
2022/01/09 01:15:32;;;;;;;36.20;7.95;;;;;;;6.18;100.00;99008.34;5115119;28;20115;-48
2022/01/09 01:17:57;;;;;;;32.47;6.97;;;;;;;6.17;100.00;99008.38;5115012;28;20040;-53
2022/01/09 01:20:23;;;;;;;26.35;6.05;;;;;;;6.16;100.00;99020.59;5096572;28;20055;-50
2022/01/09 01:22:52;;;;;;;31.30;6.00;;;;;;;5.71;100.00;98940.75;5096549;28;20043;-51
2022/01/09 01:25:18;;;;;;;39.72;5.80;;;;;;;6.12;100.00;99029.50;5114154;28;20062;-47
2022/01/09 01:27:44;;;;;;;29.70;6.10;;;;;;;6.10;100.00;99033.91;5096158;28;20099;-50
2022/01/09 01:30:10;;;;;;;28.15;5.82;;;;;;;6.09;100.00;99034.84;5114793;28;20040;-50
2022/01/09 01:32:35;;;;;;;34.42;6.28;;;;;;;6.08;100.00;99040.97;5114616;28;20165;-49
2022/01/09 01:35:01;;;;;;;35.90;5.60;;;;;;;6.11;100.00;99053.91;5114455;28;20073;-51
2022/01/09 01:37:26;;;;;;;31.20;5.55;;;;;;;6.03;100.00;99042.94;5096056;28;20063;-51
2022/01/09 01:39:52;;;;;;;23.63;5.95;;;;;;;5.99;100.00;99043.97;5096484;28;20044;-51
2022/01/09 01:42:17;;;;;;;29.52;5.72;;;;;;;6.03;100.00;99071.69;5096020;28;20043;-52
2022/01/09 01:44:49;;;;;;;32.03;5.75;;;;;;;6.13;100.00;99082.56;5114565;28;20039;-53
2022/01/09 01:47:17;;;;;;;28.08;5.32;;;;;;;5.95;100.00;99054.63;5114248;28;20036;-50
2022/01/09 01:49:43;;;;;;;24.10;5.32;;;;;;;6.11;100.00;99095.72;5114260;28;20086;-51
2022/01/09 01:52:09;;;;;;;25.48;5.03;;;;;;;6.08;100.00;99085.38;5114132;28;20486;-52
2022/01/09 01:54:35;;;;;;;35.45;5.53;;;;;;;6.05;100.00;99093.34;5114163;28;20478;-53
2022/01/09 01:57:02;;;;;;;24.65;4.43;;;;;;;5.71;100.00;99039.94;5114230;28;20039;-52
2022/01/09 01:59:29;;;;;;;27.00;4.95;;;;;;;6.05;100.00;99098.56;5114555;28;20028;-52
2022/01/09 02:01:55;;;;;;;24.23;5.50;;;;;;;5.52;100.00;99006.75;5114128;28;20062;-59
2022/01/09 02:04:20;;;;;;;33.42;6.18;;;;;;;6.04;100.00;99109.91;5095888;28;20071;-49
2022/01/09 02:06:45;;;;;;;24.75;4.75;;;;;;;5.58;100.00;99044.81;5113922;28;20398;-51
2022/01/09 02:09:11;;;;;;;26.65;5.32;;;;;;;6.04;100.00;99133.44;5095728;28;20027;-50
2022/01/09 02:11:37;;;;;;;29.77;5.82;;;;;;;5.58;100.00;99050.88;5114171;28;20122;-49
2022/01/09 02:14:03;;;;;;;26.73;5.53;;;;;;;5.57;100.00;99061.41;5113810;28;20153;-52
2022/01/09 02:16:28;;;;;;;19.38;3.92;;;;;;;6.04;100.00;99136.03;5113731;28;20055;-49
2022/01/09 02:18:54;;;;;;;31.83;4.95;;;;;;;6.03;100.00;99141.34;5113711;28;20031;-52
2022/01/09 02:21:19;;;;;;;25.20;5.55;;;;;;;5.49;100.00;99063.44;5113526;28;20035;-52
2022/01/09 02:23:47;;;;;;;21.25;5.07;;;;;;;5.44;100.00;99099.31;5113505;28;20031;-52
2022/01/09 02:26:17;;;;;;;26.73;4.47;;;;;;;5.39;100.00;99075.16;5113390;28;20034;-50
2022/01/09 02:28:42;;;;;;;25.15;4.47;;;;;;;5.80;100.00;99151.84;5095410;28;20143;-54
2022/01/09 02:31:09;;;;;;;22.08;4.88;;;;;;;5.84;100.00;99177.75;5113579;28;20417;-52
2022/01/09 02:33:34;;;;;;;18.85;4.25;;;;;;;5.73;100.00;99172.09;5113341;28;20036;-51
2022/01/09 02:36:00;;;;;;;16.73;3.75;;;;;;;5.40;100.00;99116.00;5113260;28;20028;-50
2022/01/09 02:38:25;;;;;;;23.60;4.32;;;;;;;5.34;100.00;99098.00;5102223;28;20418;-50
2022/01/09 02:40:52;;;;;;;20.60;3.88;;;;;;;5.84;100.00;99196.03;5113412;28;20035;-51
2022/01/09 02:43:17;;;;;;;22.30;4.38;;;;;;;5.35;100.00;99124.00;5113223;28;20474;-50
2022/01/09 02:45:45;;;;;;;24.58;4.78;;;;;;;5.75;100.00;99216.44;5113314;28;20091;-53
2022/01/09 02:48:11;;;;;;;20.40;4.88;;;;;;;5.36;100.00;99141.38;5113264;28;20031;-51
2022/01/09 02:50:41;;;;;;;23.70;3.97;;;;;;;5.50;100.00;99178.22;5111844;28;20046;-51
2022/01/09 02:53:14;;;;;;;26.27;5.22;;;;;;;5.74;100.00;99222.56;5112793;28;20032;-51
2022/01/09 02:55:41;;;;;;;29.30;4.32;;;;;;;5.24;100.00;99140.97;5112790;28;20076;-50
2022/01/09 02:58:06;;;;;;;25.98;4.80;;;;;;;5.72;100.00;99237.44;5111879;28;20039;-51
2022/01/09 03:00:34;;;;;;;18.40;3.90;;;;;;;5.69;100.00;99238.41;5113009;28;20024;-52
2022/01/09 03:03:00;;;;;;;25.13;4.50;;;;;;;5.69;100.00;99244.47;5111784;28;20042;-49
2022/01/09 03:05:27;;;;;;;29.88;4.15;;;;;;;5.60;100.00;99231.75;5112888;28;20036;-50
2022/01/09 03:07:52;;;;;;;23.55;3.90;;;;;;;5.60;100.00;99262.25;5113180;28;20036;-51
2022/01/09 03:10:19;;;;;;;22.60;3.92;;;;;;;5.08;100.00;99167.63;5113005;28;20442;-47
2022/01/09 03:12:50;;;;;;;23.45;4.38;;;;;;;5.46;100.00;99243.59;5112909;28;20089;-49
2022/01/09 03:15:17;;;;;;;20.30;3.90;;;;;;;5.54;100.00;99280.75;5112944;28;20524;-51
2022/01/09 03:17:43;;;;;;;26.08;5.05;;;;;;;5.02;100.00;99193.91;5112796;28;20072;-51
2022/01/09 03:20:12;;;;;;;18.52;3.88;;;;;;;5.26;100.00;99235.66;5112676;28;20438;-49
2022/01/09 03:22:37;;;;;;;27.17;4.95;;;;;;;5.43;100.00;99277.69;5112939;28;20032;-51
2022/01/09 03:25:03;;;;;;;20.73;3.90;;;;;;;5.50;100.00;99297.41;5112590;28;20105;-50
2022/01/09 03:27:28;;;;;;;18.05;3.72;;;;;;;5.45;100.00;99300.19;5112828;28;20038;-52
2022/01/09 03:29:54;;;;;;;25.35;4.07;;;;;;;4.62;100.00;99153.66;5112725;28;20432;-48
2022/01/09 03:32:19;;;;;;;19.50;3.47;;;;;;;5.21;100.00;99271.50;5112559;28;20024;-50
2022/01/09 03:34:45;;;;;;;22.58;4.43;;;;;;;5.29;100.00;99296.41;5112827;28;20047;-52
2022/01/09 03:37:10;;;;;;;16.23;3.10;;;;;;;5.32;100.00;99327.63;5111429;28;20493;-50
2022/01/09 03:39:35;;;;;;;18.83;3.60;;;;;;;5.38;100.00;99335.22;5112227;28;20417;-50
2022/01/09 03:42:01;;;;;;;20.27;3.65;;;;;;;5.41;100.00;99332.50;5112507;28;20036;-51
2022/01/09 03:44:27;;;;;;;16.00;3.60;;;;;;;5.41;100.00;99323.81;5112469;28;20028;-51
2022/01/09 03:46:53;;;;;;;21.38;3.58;;;;;;;5.06;100.00;99268.53;5112810;28;20036;-51
2022/01/09 03:49:18;;;;;;;20.80;4.40;;;;;;;5.41;100.00;99335.13;5113658;28;20040;-51
2022/01/09 03:51:46;;;;;;;17.85;3.35;;;;;;;5.42;100.00;99334.22;5116376;28;20035;-51
2022/01/09 03:54:13;;;;;;;15.43;3.05;;;;;;;5.41;100.00;99336.88;5116252;28;20035;-50
2022/01/09 03:56:38;;;;;;;19.27;3.08;;;;;;;5.44;100.00;99336.75;5116507;28;20035;-49
2022/01/09 03:59:03;;;;;;;18.10;4.25;;;;;;;5.49;100.00;99340.06;5116396;28;20463;-54
2022/01/09 04:01:29;;;;;;;14.23;2.55;;;;;;;5.20;100.00;99301.09;5116435;28;20184;-54
2022/01/09 04:03:54;;;;;;;17.05;3.17;;;;;;;5.41;100.00;99353.38;5116240;28;20459;-54
2022/01/09 04:06:20;;;;;;;18.25;3.05;;;;;;;5.35;100.00;99357.97;5116488;28;20040;-53
2022/01/09 04:08:47;;;;;;;17.40;3.10;;;;;;;5.20;100.00;99329.78;5098140;28;20027;-48
2022/01/09 04:11:16;;;;;;;19.13;3.80;;;;;;;5.30;100.00;99355.53;5116111;28;20032;-52
2022/01/09 04:13:41;;;;;;;22.05;3.83;;;;;;;5.01;100.00;99319.16;5115985;28;20037;-54
2022/01/09 04:16:06;;;;;;;19.48;3.80;;;;;;;4.87;100.00;99303.97;5116191;28;20085;-50
2022/01/09 04:18:32;;;;;;;28.42;4.97;;;;;;;5.18;100.00;99366.38;5116073;28;20089;-50
2022/01/09 04:20:58;;;;;;;15.52;3.60;;;;;;;5.19;100.00;99365.47;5116198;28;20253;-51
2022/01/09 04:23:24;;;;;;;16.15;3.10;;;;;;;5.21;100.00;99392.34;5080486;28;20024;-50
2022/01/09 04:25:49;;;;;;;17.13;3.42;;;;;;;5.12;100.00;99371.78;5116040;28;20043;-50
2022/01/09 04:28:15;;;;;;;17.17;3.40;;;;;;;5.20;100.00;99382.81;5097633;28;20032;-51
2022/01/09 04:30:41;;;;;;;18.95;3.88;;;;;;;5.12;100.00;99379.63;5097570;28;20042;-52
2022/01/09 04:33:08;;;;;;;16.35;2.60;;;;;;;4.67;100.00;99311.59;5115476;28;20249;-51
2022/01/09 04:35:34;;;;;;;13.90;2.85;;;;;;;5.15;100.00;99404.75;5097620;28;20040;-49
2022/01/09 04:37:59;;;;;;;20.77;3.92;;;;;;;5.11;100.00;99410.06;5099283;28;20043;-51
2022/01/09 04:40:25;;;;;;;13.77;3.38;;;;;;;5.10;100.00;99420.56;5115790;28;20043;-50
2022/01/09 04:43:10;;;;;;;11.80;2.95;;;;;;;4.59;100.00;99349.22;5115446;28;20437;-51
2022/01/09 04:45:35;;;;;;;12.68;2.80;;;;;;;4.48;100.00;99341.75;5115393;28;20031;-52
2022/01/09 04:48:04;;;;;;;10.90;3.08;;;;;;;4.95;100.00;99437.56;5115659;28;20114;-50
2022/01/09 04:50:32;;;;;;;12.15;3.25;;;;;;;4.94;100.00;99440.19;5115612;28;20474;-53
2022/01/09 04:53:04;;;;;;;13.13;3.25;;;;;;;4.59;100.00;99368.31;5114242;28;20405;-51
2022/01/09 04:55:30;;;;;;;16.38;3.45;;;;;;;4.99;100.00;99449.56;5115314;27;20103;-49
2022/01/09 04:57:56;;;;;;;14.23;2.92;;;;;;;4.57;100.00;99364.06;5113039;28;20696;-49
2022/01/09 05:00:22;;;;;;;14.38;3.08;;;;;;;5.09;100.00;99466.66;5103760;28;20110;-50
2022/01/09 05:02:47;;;;;;;14.65;3.42;;;;;;;5.14;100.00;99465.66;5113561;28;20443;-50
2022/01/09 05:05:14;;;;;;;14.27;3.47;;;;;;;4.66;100.00;99367.25;5113958;28;20024;-54
2022/01/09 05:07:39;;;;;;;13.85;3.15;;;;;;;4.72;100.00;99381.81;5096473;28;20023;-56
2022/01/09 05:10:06;;;;;;;16.77;3.45;;;;;;;5.14;100.00;99450.00;5115095;28;20069;-53
2022/01/09 05:12:32;;;;;;;11.25;3.03;;;;;;;5.18;100.00;99468.09;5096572;28;20470;-50
2022/01/09 05:14:58;;;;;;;11.15;2.90;;;;;;;5.22;100.00;99476.69;5115337;28;20031;-51
2022/01/09 05:17:23;;;;;;;14.57;3.05;;;;;;;5.23;100.00;99478.38;5115001;28;20036;-50
2022/01/09 05:19:51;;;;;;;10.07;2.50;;;;;;;5.25;100.00;99489.63;5114915;28;20039;-50
2022/01/09 05:22:16;;;;;;;16.42;3.33;;;;;;;5.27;100.00;99487.81;5115013;28;20039;-52
2022/01/09 05:24:41;;;;;;;15.35;3.00;;;;;;;4.66;100.00;99390.69;5096649;28;20040;-51
2022/01/09 05:27:07;;;;;;;10.82;3.10;;;;;;;5.30;100.00;99498.16;5114643;28;20063;-47
2022/01/09 05:29:32;;;;;;;13.07;2.92;;;;;;;5.32;100.00;99512.00;5114953;28;20036;-52
2022/01/09 05:31:58;;;;;;;12.35;2.92;;;;;;;5.22;100.00;99497.56;5114527;28;20402;-49
2022/01/09 05:34:23;;;;;;;13.10;3.08;;;;;;;5.00;100.00;99479.13;5114498;28;20032;-48
2022/01/09 05:36:48;;;;;;;18.58;3.35;;;;;;;5.01;100.00;99514.72;5096354;28;20522;-51
2022/01/09 05:39:14;;;;;;;20.17;3.95;;;;;;;4.82;100.00;99488.34;5114377;28;20043;-55
2022/01/09 05:41:42;;;;;;;17.83;3.50;;;;;;;4.91;100.00;99523.72;5114359;28;20035;-51
2022/01/09 05:44:07;;;;;;;21.17;3.92;;;;;;;4.30;100.00;99413.50;5114524;28;20030;-48
2022/01/09 05:46:32;;;;;;;20.30;3.55;;;;;;;4.75;100.00;99492.06;5114565;28;20402;-54
2022/01/09 05:48:58;;;;;;;18.92;3.17;;;;;;;4.35;100.00;99431.63;5114347;28;20031;-50
2022/01/09 05:51:23;;;;;;;18.63;3.42;;;;;;;4.79;100.00;99500.63;5114332;28;20039;-50
2022/01/09 05:53:48;;;;;;;21.30;3.47;;;;;;;4.81;100.00;99510.13;5114244;28;20036;-51
2022/01/09 05:56:14;;;;;;;18.15;3.67;;;;;;;4.88;100.00;99529.88;5114029;28;20032;-53
2022/01/09 05:58:39;;;;;;;11.65;2.60;;;;;;;4.87;100.00;99522.97;5114579;28;20087;-50
2022/01/09 06:01:06;;;;;;;19.40;3.92;;;;;;;4.82;100.00;99522.25;5096155;28;20399;-52
2022/01/09 06:03:31;;;;;;;24.75;3.72;;;;;;;4.76;100.00;99509.38;5114179;28;20118;-51
2022/01/09 06:05:57;;;;;;;15.10;3.47;;;;;;;4.81;100.00;99532.72;5095815;28;20102;-51
2022/01/09 06:08:22;;;;;;;12.40;2.80;;;;;;;4.72;100.00;99528.66;5113899;28;20059;-51
2022/01/09 06:10:47;;;;;;;16.27;3.22;;;;;;;4.20;100.00;99468.53;5113885;28;20035;-53
2022/01/09 06:13:13;;;;;;;17.50;3.28;;;;;;;4.62;100.00;99550.66;5113140;28;20028;-53
2022/01/09 06:15:38;;;;;;;20.17;3.00;;;;;;;4.59;100.00;99545.53;5113865;28;20042;-51
2022/01/09 06:18:03;;;;;;;18.85;3.65;;;;;;;4.08;100.00;99467.13;5095667;28;20518;-48
2022/01/09 06:20:29;;;;;;;12.43;2.67;;;;;;;4.44;100.00;99536.38;5095445;28;20036;-50
2022/01/09 06:22:54;;;;;;;16.65;2.72;;;;;;;4.17;100.00;99476.41;5113738;28;20035;-48
2022/01/09 06:25:21;;;;;;;15.77;3.15;;;;;;;4.60;100.00;99554.19;5113608;28;20042;-52
2022/01/09 06:27:46;;;;;;;14.20;2.58;;;;;;;4.37;100.00;99510.56;5113606;28;20031;-51
2022/01/09 06:30:12;;;;;;;19.98;3.05;;;;;;;4.70;100.00;99569.53;5113636;28;20363;-48
2022/01/09 06:32:37;;;;;;;14.88;2.55;;;;;;;4.44;100.00;99522.50;5113426;28;20070;-53
2022/01/09 06:35:03;;;;;;;11.18;2.97;;;;;;;4.80;100.00;99591.84;5113206;28;20083;-50
2022/01/09 06:37:29;;;;;;;19.65;2.88;;;;;;;4.37;100.00;99519.25;5112905;28;20046;-49
2022/01/09 06:39:54;;;;;;;11.73;2.67;;;;;;;4.76;100.00;99594.59;5112900;28;20090;-49
2022/01/09 06:42:19;;;;;;;10.27;2.92;;;;;;;4.39;100.00;99534.81;5095070;28;20043;-48
2022/01/09 06:44:45;;;;;;;14.00;2.25;;;;;;;4.47;100.00;99553.69;5095255;28;20635;-50
2022/01/09 06:47:10;;;;;;;15.20;3.33;;;;;;;4.31;100.00;99529.84;5113281;28;20027;-49
2022/01/09 06:49:36;;;;;;;17.08;3.25;;;;;;;4.62;100.00;99599.31;5113178;28;20039;-54
2022/01/09 06:52:03;;;;;;;16.95;3.13;;;;;;;4.66;100.00;99609.63;5095145;28;20456;-49
2022/01/09 06:54:28;;;;;;;18.25;2.95;;;;;;;4.67;100.00;99618.31;5112979;28;20036;-49
2022/01/09 06:56:53;;;;;;;18.17;3.63;;;;;;;4.67;100.00;99616.53;5094864;28;20058;-52
2022/01/09 06:59:19;;;;;;;15.88;2.80;;;;;;;4.33;100.00;99563.63;5113152;28;20059;-52
2022/01/09 07:01:44;;;;;;;13.98;3.08;;;;;;;4.19;100.00;99543.19;5095056;28;20027;-52
2022/01/09 07:04:10;;;;;;;9.20;2.50;;;;;;;4.62;100.00;99622.75;5094552;28;20478;-53
2022/01/09 07:06:35;;;;;;;15.90;3.70;;;;;;;4.09;100.00;99546.91;5094713;28;20115;-50
2022/01/09 07:09:01;;;;;;;15.32;2.72;;;;;;;4.55;100.00;99625.53;5113004;28;20421;-53
2022/01/09 07:11:26;;;;;;;12.45;2.78;;;;;;;4.58;100.00;99631.59;5094719;28;20040;-53
2022/01/09 07:13:52;;;;;;;13.48;3.22;;;;;;;4.58;100.00;99632.44;5112820;28;20139;-52
2022/01/09 07:16:17;;;;;;;17.15;3.25;;;;;;;4.12;100.00;99559.00;5094648;28;20036;-50
2022/01/09 07:18:42;;;;;;;14.13;3.05;;;;;;;4.04;100.00;99548.81;5112773;28;20042;-52
2022/01/09 07:21:08;;;;;;;12.38;2.55;;;;;;;4.66;100.00;99666.09;5113134;28;20089;-49
2022/01/09 07:23:33;;;;;;;11.80;2.58;;;;;;;4.66;100.00;99661.75;5112791;28;20036;-51
2022/01/09 07:25:59;;;;;;;17.40;3.63;;;;;;;4.61;100.00;99649.75;5116695;28;20394;-51
2022/01/09 07:28:24;;;;;;;16.60;3.00;;;;;;;4.73;100.00;99668.50;5099077;28;20032;-52
2022/01/09 07:30:49;;;;;;;14.18;2.53;;;;;;;4.31;100.00;99596.69;5117000;28;20036;-51
2022/01/09 07:33:15;;;;;;;13.65;3.05;;;;;;;4.26;100.00;99588.16;5098922;28;20027;-52
2022/01/09 07:35:40;;;;;;;14.35;3.47;;;;;;;4.76;100.00;99697.09;5081702;28;20036;-49
2022/01/09 07:38:05;;;;;;;19.80;3.10;;;;;;;4.79;100.00;99680.50;5116791;28;20303;-52
2022/01/09 07:40:31;;;;;;;16.95;2.97;;;;;;;4.74;100.00;99675.44;5116680;28;20030;-52
2022/01/09 07:42:56;;;;;;;18.60;3.15;;;;;;;4.22;100.00;99582.16;5116578;28;20032;-51
2022/01/09 07:45:24;;;;;;;18.95;3.08;;;;;;;4.84;100.00;99684.72;5081568;28;20390;-48
2022/01/09 07:47:53;;;;;;;15.25;3.78;;;;;;;4.81;100.00;99676.97;5116607;28;20119;-49
2022/01/09 07:50:18;;;;;;;18.45;3.53;;;;;;;4.87;100.00;99700.28;5116556;28;20027;-51
2022/01/09 07:52:43;;;;;;;21.10;3.55;;;;;;;4.61;100.00;99632.38;5116586;28;20524;-52
2022/01/09 07:55:10;;;;;;;19.83;4.00;;;;;;;4.91;100.00;99699.28;5116397;28;20042;-50
2022/01/09 07:57:36;;;;;;;17.55;3.20;;;;;;;4.90;100.00;99701.94;5116412;28;20024;-50
2022/01/09 08:00:03;;;;;;;16.63;3.25;;;;;;;4.45;100.00;99638.88;5098071;28;20031;-53
2022/01/09 08:02:29;;;;;;;11.63;2.60;;;;;;;4.85;100.00;99707.28;5116408;28;20046;-49
2022/01/09 08:04:55;;;;;;;14.02;2.70;;;;;;;4.34;100.00;99646.13;5116250;28;20527;-51
2022/01/09 08:07:21;;;;;;;8.05;2.20;;;;;;;4.51;100.00;99709.91;5111157;28;20119;-52
2022/01/09 08:09:47;;;;;;;13.57;2.65;;;;;;;4.39;100.00;99694.59;5097456;28;20027;-52
2022/01/09 08:12:14;;;;;;;11.77;2.80;;;;;;;3.96;100.00;99640.13;5115411;28;20031;-47
2022/01/09 08:14:40;;;;;;;16.75;3.65;;;;;;;4.39;100.00;99717.19;5107902;28;20135;-52
2022/01/09 08:17:06;;;;;;;19.33;3.20;;;;;;;4.44;100.00;99723.13;5097523;28;20432;-51
2022/01/09 08:19:32;;;;;;;15.45;3.50;;;;;;;4.48;100.00;99722.16;5063158;28;20092;-52
2022/01/09 08:21:58;;;;;;;18.33;3.40;;;;;;;4.54;100.00;99708.97;5097198;28;20119;-53
2022/01/09 08:24:24;;;;;;;17.77;3.55;;;;;;;4.51;100.00;99712.53;5115370;28;20115;-51
2022/01/09 08:26:49;;;;;;;23.25;3.60;;;;;;;4.60;100.00;99724.47;5115577;28;20103;-49
2022/01/09 08:29:15;;;;;;;17.83;3.53;;;;;;;4.68;100.00;99734.69;5115461;28;20111;-50
2022/01/09 08:31:41;;;;;;;14.63;3.03;;;;;;;4.73;100.00;99753.69;5097164;28;20032;-50
2022/01/09 08:34:06;;;;;;;16.92;3.28;;;;;;;4.75;100.00;99750.13;5115158;28;20032;-52
2022/01/09 08:36:32;;;;;;;18.77;3.50;;;;;;;4.54;100.00;99712.44;5114868;28;20111;-53
2022/01/09 08:38:57;;;;;;;11.45;3.00;;;;;;;4.63;100.00;99740.03;5104722;28;20495;-53
2022/01/09 08:41:23;;;;;;;9.70;3.05;;;;;;;4.65;100.00;99759.06;5116732;27;20042;-50
2022/01/09 08:43:48;;;;;;;16.73;4.05;;;;;;;4.54;100.00;99742.88;5114769;28;20048;-48
2022/01/09 08:46:15;;;;;;;18.10;4.20;;;;;;;4.19;100.00;99672.53;5080525;28;20502;-52
2022/01/09 08:48:40;;;;;;;22.75;3.53;;;;;;;4.55;100.00;99739.38;5080129;28;20474;-55
2022/01/09 08:51:06;;;;;;;14.15;2.97;;;;;;;4.75;100.00;99776.22;5115417;28;20085;-54
2022/01/09 08:53:32;;;;;;;18.40;2.97;;;;;;;4.66;100.00;99744.28;5115196;28;20040;-48
2022/01/09 08:55:58;;;;;;;13.45;2.38;;;;;;;4.37;100.00;99719.84;5114554;28;20035;-49
2022/01/09 08:58:23;;;;;;;17.10;3.70;;;;;;;4.29;100.00;99706.13;5079325;28;20122;-50
2022/01/09 09:00:50;;;;;;;17.23;2.78;;;;;;;4.16;100.00;99675.22;5115285;28;20426;-50
2022/01/09 09:03:15;;;;;;;20.25;3.97;;;;;;;4.84;100.00;99780.31;5115467;28;20063;-52
2022/01/09 09:05:41;;;;;;;13.32;2.67;;;;;;;4.52;100.00;99724.63;5096344;28;20513;-49
2022/01/09 09:08:06;;;;;;;13.65;3.33;;;;;;;4.63;100.00;99736.56;5114406;28;20032;-51
2022/01/09 09:10:32;;;;;;;16.23;3.17;;;;;;;4.92;100.00;99774.00;5114276;28;20092;-51
2022/01/09 09:12:57;;;;;;;14.93;2.75;;;;;;;5.09;100.00;99816.16;5114914;28;20122;-50
2022/01/09 09:15:23;;;;;;;12.60;3.22;;;;;;;5.14;100.00;99779.50;5115249;28;20096;-50
2022/01/09 09:17:48;;;;;;;22.13;3.53;;;;;;;5.17;100.00;99797.66;5114814;28;20489;-50
2022/01/09 09:20:14;;;;;;;15.40;3.42;;;;;;;5.28;100.00;99811.31;5096249;28;20072;-50
2022/01/09 09:22:39;;;;;;;12.98;3.55;;;;;;;5.36;100.00;99811.09;5114879;28;20032;-52
2022/01/09 09:25:07;;;;;;;20.52;3.20;;;;;;;5.25;100.00;99803.56;5114587;28;20043;-52
2022/01/09 09:27:33;;;;;;;17.23;3.22;;;;;;;5.40;100.00;99837.03;5114632;28;20039;-51
2022/01/09 09:30:00;;;;;;;16.60;3.20;;;;;;;5.23;100.00;99791.44;5114635;28;20032;-52
2022/01/09 09:32:25;;;;;;;12.82;2.75;;;;;;;5.27;100.00;99827.84;5096092;28;20031;-52
2022/01/09 09:34:51;;;;;;;16.15;3.75;;;;;;;5.28;100.00;99832.19;5114387;28;20043;-53
2022/01/09 09:37:16;;;;;;;21.85;3.63;;;;;;;5.43;100.00;99846.56;5114301;28;20036;-51
2022/01/09 09:39:41;;;;;;;20.48;3.90;;;;;;;5.09;100.00;99789.22;5114298;28;20044;-52
2022/01/09 09:42:08;;;;;;;20.05;3.22;;;;;;;5.53;100.00;99856.69;5114126;28;20400;-52
2022/01/09 09:44:36;;;;;;;15.73;3.38;;;;;;;5.10;100.00;99780.50;5095839;28;20028;-49
2022/01/09 09:47:01;;;;;;;19.55;3.90;;;;;;;5.68;100.00;99861.50;5113484;28;20054;-50
2022/01/09 09:49:27;;;;;;;13.85;3.10;;;;;;;5.60;100.00;99841.75;5095644;28;20035;-53
2022/01/09 09:51:52;;;;;;;13.35;2.45;;;;;;;5.64;100.00;99869.44;5114029;28;20106;-51
2022/01/09 09:54:17;;;;;;;10.57;2.67;;;;;;;5.42;100.00;99855.28;5114104;28;20036;-52
2022/01/09 09:56:43;;;;;;;14.18;2.95;;;;;;;5.55;100.00;99883.59;5114018;28;20080;-50
2022/01/09 09:59:08;;;;;;;14.15;4.03;;;;;;;5.59;100.00;99885.25;5114051;28;20066;-54
2022/01/09 10:01:36;;;;;;;20.30;4.63;;;;;;;5.63;100.00;99899.09;5113748;28;20157;-55
2022/01/09 10:04:02;;;;;;;16.90;3.20;;;;;;;5.66;100.00;99891.16;5095535;28;20115;-49
2022/01/09 10:06:48;;;;;;;10.00;2.58;;;;;;;5.64;100.00;99892.94;5095227;28;20035;-52
2022/01/09 10:09:20;;;;;;;11.75;3.80;;;;;;;5.61;100.00;99896.50;5113594;28;20030;-55
2022/01/09 10:11:51;;;;;;;11.95;3.10;;;;;;;5.35;100.00;99864.16;5113770;28;20031;-52
2022/01/09 10:14:18;;;;;;;12.55;2.95;;;;;;;5.41;100.00;99901.41;5113524;28;20036;-52
2022/01/09 10:17:16;;;;;;;10.90;2.40;;;;;;;5.40;100.00;99904.06;5113016;28;20032;-51
2022/01/09 10:19:57;;;;;;;12.15;3.08;;;;;;;5.46;100.00;99883.84;5103881;28;20075;-52
2022/01/09 10:22:36;;;;;;;8.57;2.50;;;;;;;5.69;100.00;99919.81;5113556;28;20024;-55
2022/01/09 10:25:22;;;;;;;9.25;2.00;;;;;;;5.75;100.00;99905.72;5113618;28;20088;-51
2022/01/09 10:27:57;;;;;;;8.57;2.08;;;;;;;5.79;100.00;99913.41;5113385;28;20031;-51
2022/01/09 10:30:24;;;;;;;10.40;2.40;;;;;;;5.80;100.00;99919.50;5113267;28;20123;-51
2022/01/09 10:32:57;;;;;;;11.43;2.88;;;;;;;5.86;100.00;99917.63;5113300;28;20028;-51
2022/01/09 10:35:25;;;;;;;13.98;2.92;;;;;;;6.01;100.00;99916.34;5113301;28;20059;-52
2022/01/09 10:38:05;;;;;;;13.65;3.17;;;;;;;6.11;100.00;99899.47;5058187;28;20098;-52
2022/01/09 10:40:32;;;;;;;13.23;2.42;;;;;;;6.20;100.00;99914.88;5074358;28;20441;-54
2022/01/09 10:43:04;;;;;;;15.07;3.25;;;;;;;5.75;100.00;99841.28;5074748;28;20470;-54
2022/01/09 10:45:30;;;;;;;15.73;3.30;;;;;;;5.67;100.00;99824.97;5092425;28;20024;-52
2022/01/09 10:48:02;;;;;;;15.32;3.03;;;;;;;6.17;100.00;99920.19;5092774;28;20462;-51
2022/01/09 10:50:30;;;;;;;14.57;3.50;;;;;;;6.17;100.00;99931.50;5092789;28;20195;-52
2022/01/09 10:53:30;;;;;;;17.05;3.42;;;;;;;6.18;100.00;99930.63;5092432;28;20422;-52
2022/01/09 10:56:13;;;;;;;17.67;3.13;;;;;;;6.18;100.00;99933.25;5074154;28;20031;-51
2022/01/09 10:58:47;;;;;;;18.70;3.45;;;;;;;5.75;100.00;99851.72;5092088;28;20077;-51
2022/01/09 11:01:15;;;;;;;17.48;3.90;;;;;;;6.31;100.00;99936.31;5090702;28;20023;-51
2022/01/09 11:03:50;;;;;;;18.55;3.70;;;;;;;6.35;100.00;99930.13;5112652;28;20109;-49
2022/01/09 11:06:17;;;;;;;19.63;3.90;;;;;;;6.43;100.00;99941.19;5106576;28;20406;-50
2022/01/09 11:08:42;;;;;;;17.13;3.70;;;;;;;6.01;100.00;99877.16;5107446;28;20042;-49
2022/01/09 11:11:27;;;;;;;17.13;3.30;;;;;;;6.35;100.00;99944.94;5111362;28;20031;-55
2022/01/09 11:13:54;;;;;;;11.23;3.42;;;;;;;6.15;100.00;99938.56;5090340;28;20044;-53
2022/01/09 11:16:33;;;;;;;11.05;3.05;;;;;;;5.98;100.00;99940.75;5092294;28;20040;-51
2022/01/09 11:19:16;;;;;;;15.85;3.85;;;;;;;5.62;100.00;99874.72;5111052;28;20471;-49
2022/01/09 11:21:44;;;;;;;18.55;3.25;;;;;;;5.88;100.00;99922.78;5112429;28;20491;-53